createdAt,value
2023-01-22T00:01:05.290Z,38.03
2023-01-22T00:03:39.027Z,38.93
2023-01-22T00:06:06.717Z,37.37
2023-01-22T00:08:34.742Z,38.77
2023-01-22T00:11:02.212Z,38.80
2023-01-22T00:13:30.042Z,39.57
2023-01-22T00:15:57.896Z,39.50
2023-01-22T00:18:25.765Z,39.30
2023-01-22T00:20:54.119Z,41.23
2023-01-22T00:23:21.700Z,41.83
2023-01-22T00:25:48.715Z,39.37
2023-01-22T00:28:16.973Z,42.10
2023-01-22T00:30:44.142Z,41.87
2023-01-22T00:33:11.606Z,43.53
2023-01-22T00:35:38.738Z,41.73
2023-01-22T00:38:06.184Z,42.67
2023-01-22T00:40:33.223Z,43.07
2023-01-22T00:43:00.493Z,48.03
2023-01-22T00:45:27.480Z,43.50
2023-01-22T00:47:54.706Z,43.80
2023-01-22T00:50:21.731Z,44.27
2023-01-22T00:52:49.026Z,42.67
2023-01-22T00:55:16.045Z,44.03
2023-01-22T00:57:43.665Z,45.00
2023-01-22T01:00:11.333Z,47.33
2023-01-22T01:02:59.214Z,45.57
2023-01-22T01:05:26.692Z,47.10
2023-01-22T01:07:53.905Z,41.83
2023-01-22T01:10:21.005Z,44.87
2023-01-22T01:12:48.243Z,43.47
2023-01-22T01:15:15.258Z,41.90
2023-01-22T01:17:42.478Z,42.13
2023-01-22T01:20:10.188Z,42.27
2023-01-22T01:22:36.995Z,43.13
2023-01-22T01:25:05.269Z,44.50
2023-01-22T01:27:38.561Z,45.83
2023-01-22T01:30:06.919Z,43.57
2023-01-22T01:32:34.322Z,44.13
2023-01-22T01:35:01.589Z,45.10
2023-01-22T01:37:30.620Z,41.70
2023-01-22T01:39:58.371Z,44.83
2023-01-22T01:42:33.031Z,45.40
2023-01-22T01:45:22.888Z,42.80
2023-01-22T01:47:54.290Z,42.63
2023-01-22T01:50:22.156Z,43.00
2023-01-22T01:52:49.795Z,45.87
2023-01-22T01:55:19.944Z,43.37
2023-01-22T01:57:47.001Z,43.33
2023-01-22T02:00:14.842Z,45.57
2023-01-22T02:02:42.025Z,43.10
2023-01-22T02:05:10.057Z,44.17
2023-01-22T02:07:37.373Z,42.83
2023-01-22T02:10:06.402Z,43.10
2023-01-22T02:12:34.443Z,44.43
2023-01-22T02:15:04.062Z,46.73
2023-01-22T02:17:31.104Z,46.27
2023-01-22T02:19:58.376Z,43.27
2023-01-22T02:22:30.482Z,43.63
2023-01-22T02:24:58.627Z,45.53
2023-01-22T02:27:25.737Z,46.70
2023-01-22T02:29:53.813Z,46.60
2023-01-22T02:32:20.925Z,58.83
2023-01-22T02:34:48.237Z,50.60
2023-01-22T02:37:15.315Z,46.83
2023-01-22T02:39:42.877Z,44.87
2023-01-22T02:42:09.928Z,44.27
2023-01-22T02:44:38.336Z,46.47
2023-01-22T02:47:06.209Z,45.77
2023-01-22T02:49:33.729Z,45.97
2023-01-22T02:52:01.580Z,45.90
2023-01-22T02:54:30.224Z,49.50
2023-01-22T02:56:57.244Z,55.07
2023-01-22T02:59:24.929Z,49.40
2023-01-22T03:01:51.972Z,48.23
2023-01-22T03:04:19.413Z,47.47
2023-01-22T03:06:47.504Z,48.40
2023-01-22T03:09:17.040Z,47.57
2023-01-22T03:11:46.146Z,49.43
2023-01-22T03:14:36.863Z,49.77
2023-01-22T03:17:22.094Z,48.67
2023-01-22T03:20:09.776Z,46.73
2023-01-22T03:22:36.754Z,48.17
2023-01-22T03:25:04.365Z,48.03
2023-01-22T03:27:32.392Z,48.53
2023-01-22T03:29:59.955Z,50.00
2023-01-22T03:32:28.981Z,46.17
2023-01-22T03:34:56.370Z,47.77
2023-01-22T03:37:25.586Z,47.63
2023-01-22T03:39:57.383Z,48.63
2023-01-22T03:42:37.312Z,48.37
2023-01-22T03:45:05.205Z,47.90
2023-01-22T03:47:36.358Z,48.27
2023-01-22T03:50:16.033Z,47.40
2023-01-22T03:52:43.204Z,47.83
2023-01-22T03:55:10.505Z,47.70
2023-01-22T03:57:37.625Z,48.40
2023-01-22T04:00:07.640Z,47.17
2023-01-22T04:02:39.747Z,47.60
2023-01-22T04:05:17.428Z,49.20
2023-01-22T04:07:44.943Z,49.23
2023-01-22T04:10:13.422Z,50.40
2023-01-22T04:12:41.297Z,50.13
2023-01-22T04:15:11.547Z,49.20
2023-01-22T04:17:38.665Z,49.17
2023-01-22T04:20:44.443Z,48.50
2023-01-22T04:23:20.196Z,51.37
2023-01-22T04:25:48.689Z,50.47
2023-01-22T04:28:16.752Z,47.77
2023-01-22T04:30:50.627Z,48.80
2023-01-22T04:33:50.036Z,47.67
2023-01-22T04:36:28.707Z,47.53
2023-01-22T04:38:56.189Z,48.30
2023-01-22T04:41:23.534Z,48.93
2023-01-22T04:43:50.505Z,53.40
2023-01-22T04:46:18.575Z,70.37
2023-01-22T04:48:46.500Z,64.50
2023-01-22T04:51:14.223Z,53.57
2023-01-22T04:53:41.173Z,55.33
2023-01-22T04:56:09.130Z,56.10
2023-01-22T04:58:36.073Z,56.60
2023-01-22T05:01:04.210Z,58.00
2023-01-22T05:03:32.400Z,56.70
2023-01-22T05:06:03.961Z,55.13
2023-01-22T05:08:33.671Z,53.60
2023-01-22T05:11:03.199Z,53.43
2023-01-22T05:13:38.340Z,51.03
2023-01-22T05:16:06.025Z,49.93
2023-01-22T05:18:33.408Z,47.40
2023-01-22T05:21:01.730Z,44.53
2023-01-22T05:23:31.002Z,47.87
2023-01-22T05:25:58.488Z,56.40
2023-01-22T05:28:43.662Z,49.30
2023-01-22T05:31:45.301Z,47.03
2023-01-22T05:34:26.684Z,55.77
2023-01-22T05:36:54.194Z,64.83
2023-01-22T05:39:24.209Z,58.73
2023-01-22T05:41:53.497Z,53.90
2023-01-22T05:44:20.434Z,49.43
2023-01-22T05:46:52.231Z,56.13
2023-01-22T05:49:33.709Z,52.77
2023-01-22T05:52:01.074Z,53.90
2023-01-22T05:54:28.797Z,55.70
2023-01-22T05:56:59.798Z,51.00
2023-01-22T05:59:26.921Z,48.87
2023-01-22T06:02:03.953Z,46.83
2023-01-22T06:04:33.580Z,52.60
2023-01-22T06:07:04.188Z,52.80
2023-01-22T06:09:31.228Z,52.23
2023-01-22T06:11:58.720Z,47.23
2023-01-22T06:14:25.753Z,48.10
2023-01-22T06:16:56.740Z,45.97
2023-01-22T06:19:32.838Z,50.60
2023-01-22T06:22:00.225Z,48.53
2023-01-22T06:24:35.390Z,44.70
2023-01-22T06:27:03.755Z,46.17
2023-01-22T06:29:40.206Z,42.87
2023-01-22T06:32:08.301Z,48.73
2023-01-22T06:34:35.393Z,49.80
2023-01-22T06:37:04.207Z,47.33
2023-01-22T06:39:33.904Z,48.73
2023-01-22T06:42:08.388Z,47.03
2023-01-22T06:44:35.462Z,40.80
2023-01-22T06:47:02.897Z,42.93
2023-01-22T06:49:32.521Z,42.97
2023-01-22T06:52:00.775Z,45.50
2023-01-22T06:54:28.322Z,43.67
2023-01-22T06:56:55.561Z,39.53
2023-01-22T06:59:24.455Z,43.20
2023-01-22T07:01:52.003Z,44.00
2023-01-22T07:04:19.056Z,43.17
2023-01-22T07:06:46.312Z,43.37
2023-01-22T07:09:13.311Z,40.63
2023-01-22T07:11:40.585Z,41.33
2023-01-22T07:14:07.767Z,40.97
2023-01-22T07:16:35.097Z,42.47
2023-01-22T07:19:02.160Z,45.50
2023-01-22T07:21:29.611Z,43.67
2023-01-22T07:23:56.562Z,47.63
2023-01-22T07:26:23.796Z,46.20
2023-01-22T07:28:50.809Z,41.83
2023-01-22T07:31:18.280Z,41.13
2023-01-22T07:33:45.223Z,43.10
2023-01-22T07:36:12.557Z,44.00
2023-01-22T07:38:39.514Z,43.53
2023-01-22T07:41:20.294Z,45.73
2023-01-22T07:43:53.302Z,41.23
2023-01-22T07:46:20.787Z,40.57
2023-01-22T07:48:47.914Z,41.50
2023-01-22T07:51:15.290Z,42.17
2023-01-22T07:53:42.875Z,42.63
2023-01-22T07:56:10.580Z,43.13
2023-01-22T07:58:39.293Z,43.03
2023-01-22T08:01:07.550Z,45.37
2023-01-22T08:03:34.647Z,43.33
2023-01-22T08:06:01.934Z,43.67
2023-01-22T08:08:29.116Z,44.93
2023-01-22T08:10:59.528Z,43.63
2023-01-22T08:13:26.777Z,44.87
2023-01-22T08:15:55.128Z,44.37
2023-01-22T08:18:23.078Z,42.07
2023-01-22T08:20:50.562Z,40.50
2023-01-22T08:23:17.531Z,44.97
2023-01-22T08:25:44.764Z,42.13
2023-01-22T08:28:11.840Z,43.10
2023-01-22T08:30:46.161Z,41.80
2023-01-22T08:33:15.967Z,39.87
2023-01-22T08:35:43.475Z,41.47
2023-01-22T08:38:10.624Z,42.20
2023-01-22T08:40:38.374Z,43.23
2023-01-22T08:43:05.390Z,42.47
2023-01-22T08:45:32.889Z,43.00
2023-01-22T08:48:00.405Z,42.63
2023-01-22T08:50:29.339Z,42.00
2023-01-22T08:52:58.783Z,42.30
2023-01-22T08:55:27.886Z,42.40
2023-01-22T08:57:55.760Z,45.23
2023-01-22T09:00:23.772Z,42.87
2023-01-22T09:02:50.795Z,43.70
2023-01-22T09:05:18.395Z,41.63
2023-01-22T09:07:45.303Z,45.97
2023-01-22T09:10:13.004Z,40.60
2023-01-22T09:12:40.649Z,43.00
2023-01-22T09:15:08.519Z,44.47
2023-01-22T09:17:35.533Z,42.57
2023-01-22T09:20:02.989Z,41.43
2023-01-22T09:22:29.924Z,40.80
2023-01-22T09:24:57.261Z,39.50
2023-01-22T09:27:24.245Z,42.13
2023-01-22T09:29:51.458Z,40.43
2023-01-22T09:32:18.464Z,42.97
2023-01-22T09:34:45.946Z,40.83
2023-01-22T09:37:14.732Z,40.37
2023-01-22T09:39:42.189Z,40.37
2023-01-22T09:42:16.894Z,43.97
2023-01-22T09:44:46.445Z,42.03
2023-01-22T09:47:16.447Z,42.30
2023-01-22T09:49:50.241Z,42.93
2023-01-22T09:52:17.360Z,40.90
2023-01-22T09:54:44.622Z,42.50
2023-01-22T09:57:29.999Z,44.67
2023-01-22T09:59:58.538Z,41.97
2023-01-22T10:02:39.549Z,45.40
2023-01-22T10:05:20.124Z,41.53
2023-01-22T10:07:53.104Z,42.47
2023-01-22T10:10:24.415Z,43.30
2023-01-22T10:12:58.526Z,44.40
2023-01-22T10:15:25.985Z,49.90
2023-01-22T10:17:55.815Z,47.30
2023-01-22T10:20:24.758Z,42.90
2023-01-22T10:22:56.514Z,43.93
2023-01-22T10:25:23.728Z,45.53
2023-01-22T10:27:57.899Z,42.70
2023-01-22T10:30:27.616Z,41.97
2023-01-22T10:33:03.021Z,40.70
2023-01-22T10:35:32.077Z,42.47
2023-01-22T10:38:00.503Z,43.10
2023-01-22T10:40:27.787Z,42.73
2023-01-22T10:43:21.088Z,43.63
2023-01-22T10:45:53.866Z,44.40
2023-01-22T10:48:21.536Z,42.20
2023-01-22T10:51:15.888Z,48.73
2023-01-22T10:53:53.191Z,49.03
2023-01-22T10:56:33.027Z,56.37
2023-01-22T10:59:14.282Z,51.60
2023-01-22T11:01:42.959Z,52.37
2023-01-22T11:04:14.716Z,49.70
2023-01-22T11:06:47.729Z,49.53
2023-01-22T11:09:19.098Z,47.20
2023-01-22T11:12:01.230Z,52.40
2023-01-22T11:14:35.492Z,50.87
2023-01-22T11:17:16.547Z,50.03
2023-01-22T11:19:55.184Z,49.77
2023-01-22T11:22:35.651Z,50.17
2023-01-22T11:25:03.354Z,50.13
2023-01-22T11:27:37.049Z,48.57
2023-01-22T11:30:26.083Z,48.90
2023-01-22T11:33:05.016Z,46.50
2023-01-22T11:35:44.349Z,50.80
2023-01-22T11:38:43.695Z,48.40
2023-01-22T11:41:55.471Z,48.90
2023-01-22T11:44:30.813Z,43.77
2023-01-22T11:46:57.766Z,45.77
2023-01-22T11:49:39.723Z,45.87
2023-01-22T11:52:07.509Z,44.23
2023-01-22T11:55:00.083Z,47.57
2023-01-22T11:57:40.360Z,47.70
2023-01-22T12:00:39.753Z,48.53
2023-01-22T12:03:46.777Z,47.13
2023-01-22T12:06:28.112Z,49.30
2023-01-22T12:09:12.785Z,50.90
2023-01-22T12:12:12.196Z,49.20
2023-01-22T12:15:30.178Z,47.47
2023-01-22T12:18:17.312Z,47.57
2023-01-22T12:20:50.039Z,46.57
2023-01-22T12:23:20.344Z,50.13
2023-01-22T12:25:50.691Z,48.77
2023-01-22T12:28:27.435Z,50.07
2023-01-22T12:31:21.888Z,49.63
2023-01-22T12:33:49.476Z,49.17
2023-01-22T12:36:19.737Z,50.97
2023-01-22T12:38:54.878Z,49.40
2023-01-22T12:41:44.378Z,47.30
2023-01-22T12:44:33.167Z,48.90
2023-01-22T12:47:07.361Z,49.67
2023-01-22T12:49:45.404Z,47.27
2023-01-22T12:52:36.564Z,50.43
2023-01-22T12:55:44.390Z,49.43
2023-01-22T12:58:22.567Z,47.77
2023-01-22T13:01:10.275Z,46.47
2023-01-22T13:03:39.385Z,45.97
2023-01-22T13:06:31.183Z,47.10
2023-01-22T13:08:58.627Z,47.67
2023-01-22T13:11:35.006Z,48.33
2023-01-22T13:14:18.509Z,50.50
2023-01-22T13:16:55.272Z,47.90
2023-01-22T13:19:28.131Z,46.17
2023-01-22T13:21:59.938Z,45.97
2023-01-22T13:24:27.219Z,47.10
2023-01-22T13:27:00.007Z,48.87
2023-01-22T13:29:32.104Z,49.67
2023-01-22T13:32:25.139Z,50.87
2023-01-22T13:35:01.996Z,50.63
2023-01-22T13:37:30.949Z,51.53
2023-01-22T13:39:57.904Z,50.23
2023-01-22T13:42:27.361Z,47.90
2023-01-22T13:45:01.317Z,50.00
2023-01-22T13:47:35.665Z,52.33
2023-01-22T13:50:03.085Z,51.60
2023-01-22T13:52:33.098Z,53.27
2023-01-22T13:55:16.568Z,51.73
2023-01-22T13:57:48.314Z,50.40
2023-01-22T14:00:33.022Z,50.33
2023-01-22T14:03:00.971Z,51.73
2023-01-22T14:05:33.682Z,47.33
2023-01-22T14:08:12.589Z,50.73
2023-01-22T14:10:43.507Z,50.90
2023-01-22T14:13:13.397Z,55.57
2023-01-22T14:15:41.280Z,51.47
2023-01-22T14:18:14.323Z,49.17
2023-01-22T14:20:43.453Z,49.57
2023-01-22T14:23:11.470Z,49.10
2023-01-22T14:25:45.912Z,48.67
2023-01-22T14:28:13.718Z,51.77
2023-01-22T14:30:40.827Z,52.07
2023-01-22T14:33:12.909Z,48.87
2023-01-22T14:35:40.652Z,52.90
2023-01-22T14:38:08.136Z,49.87
2023-01-22T14:40:35.843Z,52.27
2023-01-22T14:43:03.640Z,49.53
2023-01-22T14:45:30.730Z,50.70
2023-01-22T14:47:58.414Z,49.57
2023-01-22T14:50:25.921Z,52.77
2023-01-22T14:52:54.251Z,50.57
2023-01-22T14:55:21.674Z,51.87
2023-01-22T14:57:49.274Z,52.57
2023-01-22T15:00:18.496Z,48.90
2023-01-22T15:02:46.266Z,53.63
2023-01-22T15:05:13.379Z,51.40
2023-01-22T15:07:40.903Z,48.43
2023-01-22T15:10:08.943Z,50.50
2023-01-22T15:12:36.399Z,50.43
2023-01-22T15:15:04.049Z,49.40
2023-01-22T15:17:31.837Z,47.03
2023-01-22T15:19:59.141Z,47.73
2023-01-22T15:22:27.466Z,46.27
2023-01-22T15:24:54.687Z,47.63
2023-01-22T15:27:22.661Z,47.53
2023-01-22T15:29:49.875Z,48.60
2023-01-22T15:32:17.807Z,48.90
2023-01-22T15:34:44.990Z,48.00
2023-01-22T15:37:14.874Z,47.40
2023-01-22T15:39:42.289Z,51.53
2023-01-22T15:42:09.758Z,47.50
2023-01-22T15:44:37.828Z,46.57
2023-01-22T15:47:05.943Z,55.70
2023-01-22T15:49:34.063Z,46.83
2023-01-22T15:52:01.787Z,49.57
2023-01-22T15:54:29.279Z,55.57
2023-01-22T15:56:57.523Z,53.80
2023-01-22T15:59:24.797Z,49.53
2023-01-22T16:01:52.578Z,51.97
2023-01-22T16:04:19.854Z,47.20
2023-01-22T16:06:47.369Z,52.10
2023-01-22T16:09:14.464Z,51.50
2023-01-22T16:11:42.317Z,47.87
2023-01-22T16:14:09.512Z,49.97
2023-01-22T16:16:38.110Z,46.03
2023-01-22T16:19:07.071Z,46.50
2023-01-22T16:21:36.686Z,45.37
2023-01-22T16:24:04.995Z,42.83
2023-01-22T16:26:34.560Z,41.17
2023-01-22T16:29:03.216Z,37.87
2023-01-22T16:31:33.030Z,39.20
2023-01-22T16:34:07.296Z,39.13
2023-01-22T16:36:35.510Z,42.67
2023-01-22T16:39:03.033Z,43.03
2023-01-22T16:41:33.442Z,43.27
2023-01-22T16:44:16.316Z,47.93
2023-01-22T16:46:49.582Z,47.37
2023-01-22T16:49:19.829Z,39.57
2023-01-22T16:51:54.284Z,45.63
2023-01-22T16:54:28.866Z,41.47
2023-01-22T16:57:01.377Z,43.73
2023-01-22T16:59:29.007Z,39.07
2023-01-22T17:01:58.604Z,38.73
2023-01-22T17:04:26.468Z,37.83
2023-01-22T17:06:56.329Z,36.47
2023-01-22T17:09:28.518Z,35.87
2023-01-22T17:11:59.185Z,34.83
2023-01-22T17:14:29.733Z,38.13
2023-01-22T17:16:59.020Z,35.60
2023-01-22T17:19:26.559Z,37.93
2023-01-22T17:21:56.785Z,38.17
2023-01-22T17:24:24.235Z,40.37
2023-01-22T17:26:53.147Z,36.30
2023-01-22T17:29:21.527Z,37.60
2023-01-22T17:31:49.385Z,37.27
2023-01-22T17:34:18.388Z,39.23
2023-01-22T17:36:46.200Z,37.70
2023-01-22T17:39:15.729Z,41.03
2023-01-22T17:41:43.976Z,35.27
2023-01-22T17:44:11.678Z,36.27
2023-01-22T17:46:39.868Z,34.07
2023-01-22T17:49:07.491Z,33.03
2023-01-22T17:51:35.428Z,33.27
2023-01-22T17:54:03.851Z,32.17
2023-01-22T17:56:34.174Z,31.10
2023-01-22T17:59:04.838Z,36.07
2023-01-22T18:01:35.299Z,37.70
2023-01-22T18:04:06.267Z,41.83
2023-01-22T18:06:34.808Z,39.67
2023-01-22T18:09:03.044Z,43.37
2023-01-22T18:11:31.411Z,41.13
2023-01-22T18:14:06.801Z,37.23
2023-01-22T18:16:36.766Z,39.93
2023-01-22T18:19:07.268Z,38.93
2023-01-22T18:21:36.905Z,37.97
2023-01-22T18:24:06.179Z,41.37
2023-01-22T18:26:34.292Z,44.80
2023-01-22T18:29:02.074Z,46.57
2023-01-22T18:31:30.120Z,43.00
2023-01-22T18:34:01.400Z,42.10
2023-01-22T18:36:32.047Z,48.90
2023-01-22T18:39:01.497Z,47.93
2023-01-22T18:41:29.418Z,41.63
2023-01-22T18:44:01.344Z,41.23
2023-01-22T18:46:33.250Z,38.97
2023-01-22T18:49:02.843Z,39.03
2023-01-22T18:51:32.100Z,37.37
2023-01-22T18:54:00.709Z,38.53
2023-01-22T18:56:28.384Z,40.77
2023-01-22T18:58:56.887Z,41.40
2023-01-22T19:01:27.231Z,45.20
2023-01-22T19:03:58.097Z,41.37
2023-01-22T19:06:29.679Z,40.70
2023-01-22T19:09:02.547Z,41.77
2023-01-22T19:11:33.591Z,38.77
2023-01-22T19:14:03.054Z,43.03
2023-01-22T19:16:31.768Z,44.03
2023-01-22T19:19:03.125Z,43.03
2023-01-22T19:21:31.596Z,41.20
2023-01-22T19:24:00.490Z,40.53
2023-01-22T19:26:33.232Z,44.70
2023-01-22T19:29:05.811Z,39.53
2023-01-22T19:31:38.667Z,39.93
2023-01-22T19:34:07.127Z,40.67
2023-01-22T19:36:38.545Z,41.87
2023-01-22T19:39:11.570Z,42.00
2023-01-22T19:41:40.245Z,41.47
2023-01-22T19:44:09.183Z,43.97
2023-01-22T19:46:38.405Z,41.57
2023-01-22T19:49:06.516Z,44.10
2023-01-22T19:51:34.582Z,43.40
2023-01-22T19:54:04.616Z,36.70
2023-01-22T19:56:35.354Z,37.63
2023-01-22T19:59:08.800Z,39.70
2023-01-22T20:01:37.166Z,42.43
2023-01-22T20:04:08.839Z,45.87
2023-01-22T20:06:36.546Z,45.10
2023-01-22T20:09:04.420Z,41.17
2023-01-22T20:11:32.366Z,40.90
2023-01-22T20:13:59.642Z,39.40
2023-01-22T20:16:29.186Z,38.73
2023-01-22T20:18:57.742Z,39.60
2023-01-22T20:21:27.049Z,40.00
2023-01-22T20:23:54.907Z,40.93
2023-01-22T20:26:23.102Z,40.17
2023-01-22T20:28:50.739Z,39.93
2023-01-22T20:31:22.712Z,38.73
2023-01-22T20:33:54.801Z,38.87
2023-01-22T20:36:24.062Z,39.57
2023-01-22T20:38:53.114Z,41.50
2023-01-22T20:41:22.455Z,39.97
2023-01-22T20:43:50.507Z,40.43
2023-01-22T20:46:21.293Z,40.30
2023-01-22T20:48:49.348Z,40.33
2023-01-22T20:51:19.997Z,39.63
2023-01-22T20:53:48.848Z,37.93
2023-01-22T20:56:19.232Z,36.07
2023-01-22T20:58:46.698Z,36.23
2023-01-22T21:01:19.059Z,37.63
2023-01-22T21:03:47.795Z,35.33
2023-01-22T21:06:18.118Z,39.57
2023-01-22T21:08:49.561Z,39.40
2023-01-22T21:11:19.789Z,38.80
2023-01-22T21:13:48.391Z,41.40
2023-01-22T21:16:19.187Z,38.07
2023-01-22T21:18:46.753Z,39.87
2023-01-22T21:21:18.054Z,37.40
2023-01-22T21:23:47.499Z,37.50
2023-01-22T21:26:16.340Z,36.57
2023-01-22T21:28:43.517Z,35.20
2023-01-22T21:31:13.569Z,34.90
2023-01-22T21:33:41.481Z,34.73
2023-01-22T21:36:10.400Z,32.73
2023-01-22T21:38:38.116Z,35.80
2023-01-22T21:41:14.797Z,33.93
2023-01-22T21:44:02.121Z,30.77
2023-01-22T21:46:41.284Z,32.80
2023-01-22T21:49:16.444Z,33.10
2023-01-22T21:51:51.094Z,32.40
2023-01-22T21:54:39.670Z,31.90
2023-01-22T21:57:08.940Z,30.83
2023-01-22T21:59:36.920Z,30.43
2023-01-22T22:02:05.144Z,32.10
2023-01-22T22:04:32.143Z,32.10
2023-01-22T22:06:59.462Z,32.37
2023-01-22T22:09:28.038Z,30.17
2023-01-22T22:11:57.088Z,30.23
2023-01-22T22:14:24.865Z,29.63
2023-01-22T22:16:52.994Z,31.27
2023-01-22T22:19:20.995Z,30.40
2023-01-22T22:21:48.909Z,29.50
2023-01-22T22:24:16.304Z,31.43
2023-01-22T22:26:43.561Z,30.90
2023-01-22T22:29:10.734Z,33.63
2023-01-22T22:31:38.553Z,35.87
2023-01-22T22:34:05.709Z,32.77
2023-01-22T22:36:33.374Z,33.77
2023-01-22T22:39:01.129Z,30.23
2023-01-22T22:41:30.776Z,30.83
2023-01-22T22:43:58.806Z,30.13
2023-01-22T22:46:31.649Z,30.97
2023-01-22T22:49:00.380Z,29.13
2023-01-22T22:51:30.735Z,27.47
2023-01-22T22:54:00.460Z,28.20
2023-01-22T22:56:28.314Z,30.30
2023-01-22T22:58:55.540Z,29.00
2023-01-22T23:01:25.200Z,30.00
2023-01-22T23:03:53.432Z,29.73
2023-01-22T23:06:26.651Z,31.97
2023-01-22T23:09:09.559Z,30.87
2023-01-22T23:11:36.949Z,31.93
2023-01-22T23:14:04.803Z,31.80
2023-01-22T23:16:34.899Z,28.00
2023-01-22T23:19:04.954Z,29.43
2023-01-22T23:21:35.175Z,30.40
2023-01-22T23:24:03.259Z,29.90
2023-01-22T23:26:31.637Z,30.23
2023-01-22T23:29:02.376Z,32.43
2023-01-22T23:31:32.077Z,32.07
2023-01-22T23:34:00.662Z,31.77
2023-01-22T23:36:27.970Z,28.97
2023-01-22T23:38:55.258Z,29.43
2023-01-22T23:41:23.016Z,29.33
2023-01-22T23:43:50.595Z,28.47
2023-01-22T23:46:21.042Z,26.67
2023-01-22T23:48:48.205Z,29.13
2023-01-22T23:51:15.985Z,28.73
2023-01-22T23:53:47.375Z,27.90
2023-01-22T23:56:15.850Z,28.37
2023-01-22T23:58:43.297Z,28.00
